VLG3CA EDDH-EGKK
Flight info
| Callsign | VLG3CA |
|---|---|
| Flight time | N/A |
| Altitude | 36000 |
| Route | WSN5G/33 WSN N125 ITMIZ DCT GALSO Q63 ARREK Y4 TEBRA |
| Aircraft | A320/M-SDE3FGHIRWY/LB1 |
Departure
| Time | 2026-04-23 17:56 |
|---|---|
| Airport | Hamburg Helmut Schmidt Airport (EDDH) |
Arrival
| Time | N/A |
|---|---|
| Airport | London Gatwick Airport (EGKK) |
| Time | Latitude | Longitude | Altitude | Speed | Heading |
|---|---|---|---|---|---|
| 2026-04-23 17:24 | 53.62809 | 10.00244 | 46 ft | 0 kts | 62° |
| 2026-04-23 17:50 | 53.62790 | 10.00179 | 44 ft | 4 kts | 77° |
| 2026-04-23 17:50 | 53.62789 | 10.00136 | 46 ft | 4 kts | 110° |
| 2026-04-23 17:51 | 53.62800 | 10.00110 | 42 ft | 1 kts | 153° |
| 2026-04-23 17:51 | 53.62804 | 10.00107 | 43 ft | 0 kts | 153° |
| 2026-04-23 17:53 | 53.62799 | 10.00111 | 46 ft | 4 kts | 152° |
| 2026-04-23 17:54 | 53.62750 | 10.00155 | 46 ft | 12 kts | 152° |
| 2026-04-23 17:54 | 53.62700 | 10.00201 | 46 ft | 8 kts | 152° |
| 2026-04-23 17:54 | 53.62636 | 10.00258 | 46 ft | 6 kts | 155° |
| 2026-04-23 17:55 | 53.62553 | 10.00161 | 47 ft | 13 kts | 247° |
| 2026-04-23 17:55 | 53.62541 | 10.00028 | 45 ft | 0 kts | 320° |
| 2026-04-23 17:55 | 53.62548 | 10.00020 | 46 ft | 5 kts | 326° |
| 2026-04-23 17:56 | 53.62746 | 9.99846 | 47 ft | 68 kts | 332° |
| 2026-04-23 17:56 | 53.64269 | 9.98480 | 208 ft | 160 kts | 328° |
| 2026-04-23 17:56 | 53.65281 | 9.97628 | 850 ft | 166 kts | 329° |
| 2026-04-23 17:57 | 53.66311 | 9.96762 | 1579 ft | 169 kts | 331° |
| 2026-04-23 17:57 | 53.67424 | 9.95816 | 2065 ft | 186 kts | 333° |
| 2026-04-23 17:57 | 53.69779 | 9.93814 | 3676 ft | 192 kts | 333° |
| 2026-04-23 17:58 | 53.70913 | 9.92579 | 4429 ft | 198 kts | 314° |
| 2026-04-23 17:58 | 53.71517 | 9.90416 | 4907 ft | 224 kts | 281° |
| 2026-04-23 17:58 | 53.71303 | 9.87617 | 4995 ft | 258 kts | 261° |
| 2026-04-23 17:58 | 53.70759 | 9.84640 | 5009 ft | 265 kts | 256° |
| 2026-04-23 17:59 | 53.70137 | 9.81731 | 5008 ft | 268 kts | 256° |
| 2026-04-23 17:59 | 53.69490 | 9.78785 | 5014 ft | 268 kts | 256° |
| 2026-04-23 17:59 | 53.68852 | 9.75834 | 5062 ft | 269 kts | 256° |
| 2026-04-23 17:59 | 53.68227 | 9.72826 | 5881 ft | 271 kts | 257° |
| 2026-04-23 18:00 | 53.67611 | 9.69794 | 6806 ft | 273 kts | 257° |
| 2026-04-23 18:00 | 53.67000 | 9.66730 | 7613 ft | 277 kts | 257° |
| 2026-04-23 18:00 | 53.66385 | 9.63621 | 8440 ft | 281 kts | 257° |
| 2026-04-23 18:00 | 53.65762 | 9.60470 | 9261 ft | 285 kts | 257° |
| 2026-04-23 18:01 | 53.64997 | 9.57393 | 9991 ft | 296 kts | 245° |
| 2026-04-23 18:01 | 53.63828 | 9.54490 | 10225 ft | 300 kts | 239° |
| 2026-04-23 18:01 | 53.62567 | 9.51553 | 10274 ft | 324 kts | 238° |
| 2026-04-23 18:01 | 53.61198 | 9.48371 | 10290 ft | 343 kts | 238° |
| 2026-04-23 18:02 | 53.59774 | 9.45075 | 10933 ft | 349 kts | 238° |
| 2026-04-23 18:02 | 53.58340 | 9.41766 | 11680 ft | 352 kts | 237° |
| 2026-04-23 18:02 | 53.56885 | 9.38413 | 12390 ft | 356 kts | 237° |
| 2026-04-23 18:02 | 53.55415 | 9.35026 | 13083 ft | 361 kts | 237° |
| 2026-04-23 18:03 | 53.53948 | 9.31637 | 13775 ft | 364 kts | 237° |
| 2026-04-23 18:03 | 53.52452 | 9.28170 | 14412 ft | 368 kts | 237° |
| 2026-04-23 18:03 | 53.50944 | 9.24672 | 15030 ft | 371 kts | 237° |
| 2026-04-23 18:03 | 53.49421 | 9.21149 | 15651 ft | 374 kts | 237° |
| 2026-04-23 18:04 | 53.47884 | 9.17592 | 16287 ft | 377 kts | 237° |
| 2026-04-23 18:04 | 53.46332 | 9.14006 | 16911 ft | 380 kts | 237° |
| 2026-04-23 18:04 | 53.44767 | 9.10402 | 17515 ft | 383 kts | 236° |
| 2026-04-23 18:04 | 53.43303 | 9.06667 | 18099 ft | 383 kts | 247° |
| 2026-04-23 18:05 | 53.42260 | 9.02553 | 18681 ft | 385 kts | 250° |
| 2026-04-23 18:05 | 53.41259 | 8.98440 | 19190 ft | 387 kts | 251° |
| 2026-04-23 18:05 | 53.40241 | 8.94234 | 19700 ft | 390 kts | 250° |
| 2026-04-23 18:05 | 53.39218 | 8.89995 | 20194 ft | 393 kts | 250° |
| 2026-04-23 18:06 | 53.38187 | 8.85729 | 20708 ft | 396 kts | 250° |
| 2026-04-23 18:06 | 53.37136 | 8.81446 | 21182 ft | 399 kts | 250° |
| 2026-04-23 18:06 | 53.36050 | 8.77163 | 21682 ft | 401 kts | 249° |